createdAt,value
2019-03-23T00:01:36.554Z,12.40
2019-03-23T00:04:06.242Z,12.40
2019-03-23T00:06:35.681Z,11.23
2019-03-23T00:09:06.435Z,10.77
2019-03-23T00:11:36.486Z,11.63
2019-03-23T00:14:06.200Z,11.00
2019-03-23T00:16:36.018Z,11.60
2019-03-23T00:19:05.475Z,12.20
2019-03-23T00:21:34.973Z,11.13
2019-03-23T00:24:04.530Z,10.67
2019-03-23T00:26:34.647Z,11.80
2019-03-23T00:29:04.463Z,10.97
2019-03-23T00:31:34.169Z,11.83
2019-03-23T00:34:03.687Z,11.67
2019-03-23T00:36:41.121Z,12.13
2019-03-23T00:39:05.985Z,12.27
2019-03-23T00:41:35.783Z,11.50
2019-03-23T00:44:07.425Z,10.70
2019-03-23T00:46:37.150Z,11.70
2019-03-23T00:49:06.527Z,11.93
2019-03-23T00:51:35.997Z,11.83
2019-03-23T00:54:06.291Z,10.97
2019-03-23T00:56:35.678Z,11.30
2019-03-23T00:59:05.228Z,10.47
2019-03-23T01:01:34.996Z,12.03
2019-03-23T01:04:04.810Z,12.20
2019-03-23T01:06:34.228Z,10.10
2019-03-23T01:09:05.470Z,10.30
2019-03-23T01:11:35.178Z,10.30
2019-03-23T01:14:04.685Z,11.60
2019-03-23T01:16:34.381Z,10.57
2019-03-23T01:19:03.757Z,11.30
2019-03-23T01:21:33.487Z,10.90
2019-03-23T01:24:02.859Z,10.53
2019-03-23T01:26:32.313Z,10.80
2019-03-23T01:29:01.678Z,11.13
2019-03-23T01:31:31.945Z,11.70
2019-03-23T01:34:01.315Z,11.87
2019-03-23T01:36:30.771Z,11.17
2019-03-23T01:39:00.501Z,11.40
2019-03-23T01:41:30.153Z,11.43
2019-03-23T01:43:59.527Z,11.40
2019-03-23T01:46:28.986Z,11.60
2019-03-23T01:48:58.774Z,10.87
2019-03-23T01:51:28.153Z,11.50
2019-03-23T01:53:57.529Z,11.50
2019-03-23T01:56:27.289Z,11.30
2019-03-23T01:58:56.997Z,11.23
2019-03-23T02:01:26.460Z,11.53
2019-03-23T02:03:55.839Z,12.10
2019-03-23T02:06:25.213Z,11.60
2019-03-23T02:08:54.585Z,12.00
2019-03-23T02:11:23.962Z,11.73
2019-03-23T02:13:53.337Z,11.53
2019-03-23T02:16:22.743Z,11.80
2019-03-23T02:18:52.434Z,12.27
2019-03-23T02:21:22.142Z,11.77
2019-03-23T02:23:51.851Z,10.90
2019-03-23T02:26:21.566Z,11.30
2019-03-23T02:28:51.274Z,11.00
2019-03-23T02:31:20.659Z,12.30
2019-03-23T02:33:50.026Z,11.27
2019-03-23T02:36:19.739Z,13.57
2019-03-23T02:38:49.530Z,11.67
2019-03-23T02:41:18.921Z,10.83
2019-03-23T02:43:48.613Z,13.10
2019-03-23T02:46:18.069Z,11.93
2019-03-23T02:48:47.521Z,12.50
2019-03-23T02:51:16.907Z,12.27
2019-03-23T02:53:46.278Z,13.50
2019-03-23T02:56:16.347Z,11.80
2019-03-23T02:58:46.058Z,11.27
2019-03-23T03:01:15.433Z,12.20
2019-03-23T03:03:44.810Z,13.27
2019-03-23T03:06:14.258Z,12.10
2019-03-23T03:08:43.714Z,11.30
2019-03-23T03:11:13.090Z,12.87
2019-03-23T03:13:42.485Z,11.67
2019-03-23T03:16:12.007Z,12.40
2019-03-23T03:18:41.411Z,11.90
2019-03-23T03:21:10.846Z,13.43
2019-03-23T03:23:40.222Z,12.40
2019-03-23T03:26:09.598Z,13.20
2019-03-23T03:28:38.988Z,13.40
2019-03-23T03:31:08.464Z,12.30
2019-03-23T03:33:37.888Z,11.23
2019-03-23T03:36:07.329Z,11.97
2019-03-23T03:38:36.715Z,12.70
2019-03-23T03:41:06.087Z,14.30
2019-03-23T03:43:35.845Z,12.60
2019-03-23T03:46:05.638Z,13.00
2019-03-23T03:48:35.352Z,13.03
2019-03-23T03:51:04.870Z,14.17
2019-03-23T03:53:34.256Z,14.03
2019-03-23T03:56:03.966Z,13.43
2019-03-23T03:58:33.678Z,12.67
2019-03-23T04:01:03.066Z,13.37
2019-03-23T04:03:32.530Z,13.73
2019-03-23T04:06:01.958Z,14.47
2019-03-23T04:08:31.415Z,12.53
2019-03-23T04:11:00.786Z,15.00
2019-03-23T04:13:30.178Z,14.10
2019-03-23T04:15:59.558Z,12.50
2019-03-23T04:18:28.951Z,14.13
2019-03-23T04:20:58.325Z,13.07
2019-03-23T04:23:27.706Z,14.33
2019-03-23T04:25:57.070Z,13.30
2019-03-23T04:28:26.653Z,13.00
2019-03-23T04:30:56.427Z,13.10
2019-03-23T04:33:25.892Z,13.50
2019-03-23T04:35:56.106Z,13.53
2019-03-23T04:38:25.567Z,13.27
2019-03-23T04:40:55.023Z,11.90
2019-03-23T04:43:24.413Z,12.03
2019-03-23T04:45:54.073Z,14.37
2019-03-23T04:48:23.463Z,14.50
2019-03-23T04:50:53.190Z,13.63
2019-03-23T04:53:22.569Z,14.50
2019-03-23T04:55:51.939Z,12.83
2019-03-23T04:58:21.321Z,12.87
2019-03-23T05:00:50.701Z,12.80
2019-03-23T05:03:20.085Z,14.40
2019-03-23T05:05:49.811Z,14.23
2019-03-23T05:08:19.525Z,13.00
2019-03-23T05:10:49.234Z,13.37
2019-03-23T05:13:18.614Z,14.30
2019-03-23T05:15:48.008Z,13.53
2019-03-23T05:18:17.465Z,12.17
2019-03-23T05:20:47.259Z,12.50
2019-03-23T05:23:16.633Z,13.70
2019-03-23T05:25:46.006Z,13.70
2019-03-23T05:28:15.464Z,14.50
2019-03-23T05:30:44.907Z,13.10
2019-03-23T05:33:14.675Z,12.73
2019-03-23T05:35:44.049Z,13.17
2019-03-23T05:38:13.809Z,12.70
2019-03-23T05:40:43.193Z,14.00
2019-03-23T05:43:13.015Z,12.90
2019-03-23T05:45:42.825Z,13.20
2019-03-23T05:48:12.274Z,14.20
2019-03-23T05:50:41.739Z,13.70
2019-03-23T05:53:11.210Z,14.17
2019-03-23T05:55:40.682Z,14.67
2019-03-23T05:58:10.053Z,13.50
2019-03-23T06:00:39.451Z,12.40
2019-03-23T06:03:09.253Z,13.30
2019-03-23T06:05:38.735Z,12.90
2019-03-23T06:08:08.115Z,13.60
2019-03-23T06:10:37.506Z,12.33
2019-03-23T06:13:06.950Z,12.07
2019-03-23T06:15:36.361Z,12.20
2019-03-23T06:18:05.824Z,11.20
2019-03-23T06:20:35.446Z,12.27
2019-03-23T06:23:04.989Z,13.67
2019-03-23T06:25:34.378Z,12.83
2019-03-23T06:28:03.745Z,12.67
2019-03-23T06:30:33.149Z,13.37
2019-03-23T06:33:02.525Z,13.63
2019-03-23T06:35:31.950Z,12.37
2019-03-23T06:38:01.346Z,13.63
2019-03-23T06:40:30.897Z,13.10
2019-03-23T06:43:00.354Z,12.47
2019-03-23T06:45:29.752Z,14.07
2019-03-23T06:47:59.226Z,12.53
2019-03-23T06:50:29.038Z,14.00
2019-03-23T06:52:58.750Z,13.70
2019-03-23T06:55:28.562Z,13.57
2019-03-23T06:57:58.274Z,12.73
2019-03-23T07:00:27.756Z,14.17
2019-03-23T07:02:57.429Z,12.17
2019-03-23T07:05:27.198Z,12.50
2019-03-23T07:07:57.049Z,12.87
2019-03-23T07:10:26.826Z,12.90
2019-03-23T07:12:56.198Z,13.10
2019-03-23T07:15:25.938Z,14.30
2019-03-23T07:17:55.322Z,12.60
2019-03-23T07:20:27.617Z,13.73
2019-03-23T07:22:57.065Z,13.30
2019-03-23T07:25:26.834Z,12.20
2019-03-23T07:27:56.205Z,13.20
2019-03-23T07:30:25.595Z,11.00
2019-03-23T07:32:55.389Z,11.67
2019-03-23T07:35:25.160Z,11.13
2019-03-23T07:37:54.870Z,12.50
2019-03-23T07:40:24.577Z,12.00
2019-03-23T07:42:53.955Z,12.00
2019-03-23T07:45:23.482Z,12.00
2019-03-23T07:47:53.502Z,11.10
2019-03-23T07:50:22.950Z,11.17
2019-03-23T07:52:52.334Z,11.53
2019-03-23T07:55:21.735Z,11.00
2019-03-23T07:57:51.426Z,10.93
2019-03-23T08:00:21.744Z,10.77
2019-03-23T08:02:51.971Z,12.07
2019-03-23T08:05:21.883Z,11.97
2019-03-23T08:07:51.705Z,10.23
2019-03-23T08:10:28.634Z,10.80
2019-03-23T08:12:58.398Z,10.90
2019-03-23T08:15:27.989Z,10.87
2019-03-23T08:17:57.555Z,15.47
2019-03-23T08:20:27.082Z,10.87
2019-03-23T08:22:56.874Z,11.37
2019-03-23T08:25:26.491Z,10.93
2019-03-23T08:27:56.934Z,10.60
2019-03-23T08:30:26.358Z,10.50
2019-03-23T08:32:56.101Z,11.63
2019-03-23T08:35:25.563Z,11.13
2019-03-23T08:37:54.960Z,11.20
2019-03-23T08:40:24.694Z,11.03
2019-03-23T08:42:54.158Z,11.57
2019-03-23T08:45:23.558Z,11.70
2019-03-23T08:47:53.027Z,12.03
2019-03-23T08:50:22.443Z,10.90
2019-03-23T08:52:51.842Z,12.10
2019-03-23T08:55:22.031Z,12.40
2019-03-23T08:57:52.358Z,12.03
2019-03-23T09:00:22.165Z,15.70
2019-03-23T09:02:51.563Z,18.20
2019-03-23T09:05:21.262Z,13.27
2019-03-23T09:07:52.649Z,12.60
2019-03-23T09:10:22.654Z,11.63
2019-03-23T09:12:52.463Z,12.20
2019-03-23T09:15:21.869Z,13.67
2019-03-23T09:17:51.339Z,11.70
2019-03-23T09:20:20.729Z,13.00
2019-03-23T09:22:50.383Z,13.67
2019-03-23T09:25:20.049Z,13.70
2019-03-23T09:27:49.457Z,13.70
2019-03-23T09:30:18.982Z,13.70
2019-03-23T09:32:48.713Z,13.70
2019-03-23T09:35:18.552Z,13.70
2019-03-23T09:37:48.638Z,14.50
2019-03-23T09:40:18.125Z,14.50
2019-03-23T09:42:47.962Z,14.70
2019-03-23T09:45:17.674Z,14.87
2019-03-23T09:47:47.078Z,15.77
2019-03-23T09:50:16.558Z,15.13
2019-03-23T09:52:46.034Z,15.70
2019-03-23T09:55:15.418Z,16.20
2019-03-23T09:57:44.922Z,15.70
2019-03-23T10:00:14.554Z,16.20
2019-03-23T10:02:44.314Z,15.20
2019-03-23T10:05:13.834Z,15.47
2019-03-23T10:07:43.546Z,14.17
2019-03-23T10:10:21.352Z,14.50
2019-03-23T10:12:44.894Z,15.40
2019-03-23T10:15:14.354Z,14.83
2019-03-23T10:17:43.855Z,14.27
2019-03-23T10:20:13.717Z,16.20
2019-03-23T10:22:43.202Z,37.23
2019-03-23T10:25:12.597Z,15.90
2019-03-23T10:27:42.546Z,16.70
2019-03-23T10:30:12.705Z,16.63
2019-03-23T10:32:42.186Z,15.63
2019-03-23T10:35:11.741Z,14.90
2019-03-23T10:37:41.151Z,16.20
2019-03-23T10:40:11.021Z,15.23
2019-03-23T10:42:43.163Z,15.47
2019-03-23T10:45:13.268Z,14.57
2019-03-23T10:47:43.211Z,15.43
2019-03-23T10:50:13.003Z,15.17
2019-03-23T10:52:42.501Z,15.90
2019-03-23T10:55:12.017Z,14.50
2019-03-23T10:57:41.446Z,17.20
2019-03-23T11:00:11.711Z,15.80
2019-03-23T11:02:41.312Z,17.63
2019-03-23T11:05:11.271Z,17.63
2019-03-23T11:07:40.826Z,17.10
2019-03-23T11:10:10.687Z,18.80
2019-03-23T11:12:40.286Z,24.37
2019-03-23T11:15:10.525Z,18.20
2019-03-23T11:17:40.445Z,17.87
2019-03-23T11:20:10.691Z,17.70
2019-03-23T11:22:40.318Z,16.20
2019-03-23T11:25:10.609Z,18.33
2019-03-23T11:27:40.398Z,17.10
2019-03-23T11:30:11.799Z,17.13
2019-03-23T11:32:42.103Z,17.10
2019-03-23T11:35:12.076Z,15.87
2019-03-23T11:37:41.984Z,15.03
2019-03-23T11:40:11.918Z,13.70
2019-03-23T11:42:49.243Z,15.80
2019-03-23T11:45:15.974Z,17.87
2019-03-23T11:47:45.207Z,16.93
2019-03-23T11:50:17.511Z,15.70
2019-03-23T11:52:47.260Z,16.07
2019-03-23T11:55:16.907Z,15.37
2019-03-23T11:57:46.347Z,16.53
2019-03-23T12:00:16.569Z,15.50
2019-03-23T12:02:46.385Z,15.07
2019-03-23T12:05:15.838Z,17.23
2019-03-23T12:07:45.706Z,16.10
2019-03-23T12:10:15.353Z,13.87
2019-03-23T12:12:44.836Z,15.30
2019-03-23T12:15:15.076Z,13.83
2019-03-23T12:17:44.493Z,15.00
2019-03-23T12:20:14.145Z,15.37
2019-03-23T12:22:43.695Z,14.47
2019-03-23T12:25:13.779Z,14.27
2019-03-23T12:27:43.474Z,15.67
2019-03-23T12:30:14.555Z,15.33
2019-03-23T12:32:44.068Z,16.67
2019-03-23T12:35:13.958Z,15.80
2019-03-23T12:37:43.866Z,15.90
2019-03-23T12:40:13.793Z,16.70
2019-03-23T12:42:43.540Z,16.30
2019-03-23T12:45:13.332Z,16.03
2019-03-23T12:47:43.168Z,16.20
2019-03-23T12:50:13.860Z,17.13
2019-03-23T12:52:43.836Z,15.33
2019-03-23T12:55:13.407Z,16.23
2019-03-23T12:57:43.121Z,17.40
2019-03-23T13:00:13.572Z,15.00
2019-03-23T13:02:43.096Z,17.63
2019-03-23T13:05:12.648Z,16.83
2019-03-23T13:07:42.842Z,15.53
2019-03-23T13:10:12.757Z,17.33
2019-03-23T13:12:42.233Z,15.73
2019-03-23T13:15:12.280Z,15.80
2019-03-23T13:17:41.708Z,15.30
2019-03-23T13:20:11.805Z,14.13
2019-03-23T13:22:41.730Z,15.83
2019-03-23T13:25:11.638Z,16.33
2019-03-23T13:27:42.220Z,13.70
2019-03-23T13:30:12.578Z,14.33
2019-03-23T13:32:42.143Z,15.03
2019-03-23T13:35:12.834Z,12.90
2019-03-23T13:37:42.473Z,14.80
2019-03-23T13:40:12.708Z,14.43
2019-03-23T13:42:42.646Z,14.90
2019-03-23T13:45:12.667Z,14.47
2019-03-23T13:47:42.153Z,12.57
2019-03-23T13:50:12.509Z,12.53
2019-03-23T13:52:42.233Z,12.70
2019-03-23T13:55:24.652Z,11.80
2019-03-23T13:57:54.463Z,11.30
2019-03-23T14:00:23.922Z,11.47
2019-03-23T14:02:53.389Z,11.83
2019-03-23T14:05:22.946Z,11.20
2019-03-23T14:07:52.362Z,10.70
2019-03-23T14:10:22.095Z,10.63
2019-03-23T14:12:51.656Z,9.10
2019-03-23T14:15:21.306Z,10.23
2019-03-23T14:17:51.142Z,10.17
2019-03-23T14:20:20.607Z,13.93
2019-03-23T14:22:50.014Z,12.40
2019-03-23T14:25:19.854Z,11.10
2019-03-23T14:27:49.393Z,13.03
2019-03-23T14:30:18.929Z,12.70
2019-03-23T14:32:48.762Z,13.77
2019-03-23T14:35:18.189Z,14.60
2019-03-23T14:37:47.689Z,14.20
2019-03-23T14:40:17.185Z,12.70
2019-03-23T14:42:46.813Z,12.60
2019-03-23T14:45:16.387Z,13.13
2019-03-23T14:47:45.943Z,12.90
2019-03-23T14:50:15.854Z,13.60
2019-03-23T14:52:45.355Z,13.50
2019-03-23T14:55:15.245Z,12.33
2019-03-23T14:57:44.781Z,12.90
2019-03-23T15:00:17.298Z,11.37
2019-03-23T15:02:46.682Z,11.47
2019-03-23T15:05:16.430Z,11.60
2019-03-23T15:07:45.890Z,10.47
2019-03-23T15:10:15.391Z,12.07
2019-03-23T15:12:45.045Z,12.50
2019-03-23T15:15:14.860Z,14.27
2019-03-23T15:17:48.882Z,13.73
2019-03-23T15:20:16.838Z,12.57
2019-03-23T15:22:46.295Z,13.63
2019-03-23T15:25:15.758Z,13.90
2019-03-23T15:27:45.463Z,12.63
2019-03-23T15:30:15.014Z,14.00
2019-03-23T15:32:44.803Z,13.83
2019-03-23T15:35:14.279Z,15.37
2019-03-23T15:37:43.826Z,15.50
2019-03-23T15:40:13.420Z,15.73
2019-03-23T15:42:43.318Z,15.30
2019-03-23T15:45:13.269Z,14.47
2019-03-23T15:47:42.749Z,15.10
2019-03-23T15:50:12.711Z,17.10
2019-03-23T15:52:42.462Z,17.20
2019-03-23T15:55:12.522Z,17.23
2019-03-23T15:57:42.482Z,18.13
2019-03-23T16:00:13.249Z,18.00
2019-03-23T16:02:42.803Z,16.63
2019-03-23T16:05:12.454Z,17.60
2019-03-23T16:07:41.854Z,17.23
2019-03-23T16:10:11.513Z,16.37
2019-03-23T16:12:41.213Z,16.20
2019-03-23T16:15:11.951Z,14.47
2019-03-23T16:17:41.462Z,15.47
2019-03-23T16:20:13.202Z,14.90
2019-03-23T16:22:42.668Z,16.17
2019-03-23T16:25:12.854Z,15.37
2019-03-23T16:27:42.702Z,16.60
2019-03-23T16:30:12.989Z,15.53
2019-03-23T16:32:42.846Z,16.93
2019-03-23T16:35:12.858Z,14.50
2019-03-23T16:37:42.335Z,16.00
2019-03-23T16:40:12.098Z,16.40
2019-03-23T16:42:45.512Z,18.77
2019-03-23T16:45:12.785Z,18.63
2019-03-23T16:47:42.955Z,18.20
2019-03-23T16:50:12.498Z,17.37
2019-03-23T16:52:42.366Z,17.33
2019-03-23T16:55:12.213Z,18.93
2019-03-23T16:57:41.677Z,19.33
2019-03-23T17:00:12.174Z,22.87
2019-03-23T17:02:41.708Z,23.37
2019-03-23T17:05:11.985Z,21.00
2019-03-23T17:07:41.373Z,22.03
2019-03-23T17:10:11.230Z,20.17
2019-03-23T17:12:40.970Z,22.53
2019-03-23T17:15:11.204Z,22.60
2019-03-23T17:17:40.698Z,21.07
2019-03-23T17:20:10.441Z,22.30
2019-03-23T17:22:39.933Z,21.90
2019-03-23T17:25:10.058Z,20.90
2019-03-23T17:27:39.541Z,23.40
2019-03-23T17:30:10.366Z,20.47
2019-03-23T17:32:39.842Z,21.87
2019-03-23T17:35:09.803Z,24.43
2019-03-23T17:37:39.521Z,20.73
2019-03-23T17:40:09.663Z,20.87
2019-03-23T17:42:39.154Z,21.57
2019-03-23T17:45:08.798Z,21.53
2019-03-23T17:47:38.328Z,21.23
2019-03-23T17:50:07.866Z,21.83
2019-03-23T17:52:37.458Z,23.90
2019-03-23T17:55:07.393Z,25.40
2019-03-23T17:57:36.767Z,25.47
2019-03-23T18:00:08.612Z,23.67
2019-03-23T18:02:38.116Z,23.20
2019-03-23T18:05:07.994Z,24.60
2019-03-23T18:07:37.538Z,25.10
2019-03-23T18:10:08.181Z,21.67
2019-03-23T18:12:38.047Z,20.27
2019-03-23T18:15:08.479Z,20.53
2019-03-23T18:17:38.254Z,19.33
2019-03-23T18:20:08.311Z,18.37
2019-03-23T18:22:37.864Z,21.80
2019-03-23T18:25:08.805Z,23.20
2019-03-23T18:27:38.238Z,21.00
2019-03-23T18:30:17.101Z,21.37
2019-03-23T18:32:46.509Z,22.60
2019-03-23T18:35:15.985Z,21.83
2019-03-23T18:37:45.767Z,22.23
2019-03-23T18:40:15.991Z,20.97
2019-03-23T18:42:45.480Z,19.80
2019-03-23T18:45:14.942Z,19.93
2019-03-23T18:47:44.345Z,19.70
2019-03-23T18:50:13.883Z,21.73
2019-03-23T18:52:43.618Z,19.60
2019-03-23T18:55:13.257Z,20.20
2019-03-23T18:57:42.809Z,20.33
2019-03-23T19:00:14.166Z,19.23
2019-03-23T19:02:43.566Z,19.77
2019-03-23T19:05:13.499Z,20.00
2019-03-23T19:07:42.905Z,19.20
2019-03-23T19:10:12.531Z,21.07
2019-03-23T19:12:42.334Z,22.03
2019-03-23T19:15:11.986Z,21.60
2019-03-23T19:17:41.851Z,21.43
2019-03-23T19:20:11.720Z,24.07
2019-03-23T19:22:41.193Z,24.37
2019-03-23T19:25:16.061Z,25.40
2019-03-23T19:27:42.006Z,23.33
2019-03-23T19:30:12.085Z,23.17
2019-03-23T19:32:41.573Z,23.47
2019-03-23T19:35:11.455Z,24.07
2019-03-23T19:37:40.942Z,22.40
2019-03-23T19:40:11.294Z,21.73
2019-03-23T19:42:41.003Z,22.10
2019-03-23T19:45:10.554Z,21.40
2019-03-23T19:47:40.026Z,21.70
2019-03-23T19:50:09.869Z,24.30
2019-03-23T19:52:39.663Z,25.80
2019-03-23T19:55:09.354Z,24.90
2019-03-23T19:57:39.105Z,24.00
2019-03-23T20:00:09.561Z,23.00
2019-03-23T20:02:39.038Z,20.57
2019-03-23T20:05:09.309Z,21.27
2019-03-23T20:07:38.715Z,21.97
2019-03-23T20:10:08.834Z,20.80
2019-03-23T20:12:38.347Z,19.83
2019-03-23T20:15:09.084Z,21.50
2019-03-23T20:17:38.575Z,20.40
2019-03-23T20:20:08.737Z,21.87
2019-03-23T20:22:38.507Z,20.70
2019-03-23T20:25:08.422Z,22.30
2019-03-23T20:27:37.933Z,22.23
2019-03-23T20:30:08.834Z,22.40
2019-03-23T20:32:38.238Z,22.90
2019-03-23T20:35:08.114Z,22.87
2019-03-23T20:37:37.858Z,22.67
2019-03-23T20:40:09.981Z,23.80
2019-03-23T20:42:39.357Z,21.47
2019-03-23T20:45:10.414Z,22.80
2019-03-23T20:47:41.410Z,24.27
2019-03-23T20:50:11.323Z,23.50
2019-03-23T20:52:41.949Z,24.40
2019-03-23T20:55:25.022Z,23.90
2019-03-23T20:57:55.026Z,21.80
2019-03-23T21:00:24.625Z,22.63
2019-03-23T21:02:54.080Z,24.17
2019-03-23T21:05:33.059Z,25.30
2019-03-23T21:07:55.108Z,23.33
2019-03-23T21:10:24.936Z,22.47
2019-03-23T21:12:54.401Z,22.23
2019-03-23T21:15:24.177Z,24.30
2019-03-23T21:17:53.725Z,21.50
2019-03-23T21:20:23.245Z,21.40
2019-03-23T21:22:52.838Z,23.17
2019-03-23T21:25:22.977Z,21.40
2019-03-23T21:27:52.432Z,21.67
2019-03-23T21:30:22.298Z,22.20
2019-03-23T21:32:52.514Z,22.10
2019-03-23T21:35:22.338Z,21.37
2019-03-23T21:37:52.038Z,21.30
2019-03-23T21:40:21.914Z,21.93
2019-03-23T21:42:51.666Z,21.17
2019-03-23T21:45:21.064Z,21.63
2019-03-23T21:47:51.294Z,20.73
2019-03-23T21:50:21.226Z,21.30
2019-03-23T21:52:50.614Z,21.13
2019-03-23T21:55:20.324Z,22.03
2019-03-23T21:57:49.784Z,21.10
2019-03-23T22:00:31.429Z,21.10
2019-03-23T22:03:01.202Z,19.07
2019-03-23T22:05:31.039Z,19.33
2019-03-23T22:08:00.852Z,18.93
2019-03-23T22:10:30.336Z,20.00
2019-03-23T22:13:00.179Z,18.47
2019-03-23T22:15:32.746Z,18.50
2019-03-23T22:18:02.220Z,17.60
2019-03-23T22:20:32.017Z,19.00
2019-03-23T22:23:02.089Z,17.97
2019-03-23T22:25:32.219Z,17.40
2019-03-23T22:28:01.702Z,15.27
2019-03-23T22:30:31.520Z,17.00
2019-03-23T22:33:01.331Z,19.13
2019-03-23T22:35:30.887Z,19.73
2019-03-23T22:38:00.549Z,19.43
2019-03-23T22:40:30.025Z,18.83
2019-03-23T22:42:59.505Z,19.77
2019-03-23T22:45:28.904Z,18.43
2019-03-23T22:47:58.711Z,16.73
2019-03-23T22:50:28.101Z,16.73
2019-03-23T22:52:57.495Z,15.53
2019-03-23T22:55:27.190Z,15.37
2019-03-23T22:57:56.629Z,17.23
2019-03-23T23:00:43.161Z,15.07
2019-03-23T23:03:13.619Z,18.20
2019-03-23T23:05:43.473Z,16.80
2019-03-23T23:08:12.928Z,15.80
2019-03-23T23:10:42.453Z,15.63
2019-03-23T23:13:12.263Z,15.90
2019-03-23T23:15:41.757Z,16.40
2019-03-23T23:18:11.416Z,17.80
2019-03-23T23:20:41.129Z,16.70
2019-03-23T23:23:10.511Z,16.43
2019-03-23T23:25:40.297Z,17.23
2019-03-23T23:28:10.114Z,16.20
2019-03-23T23:30:39.573Z,16.70
2019-03-23T23:33:09.438Z,16.53
2019-03-23T23:35:38.979Z,15.27
2019-03-23T23:38:08.645Z,16.27
2019-03-23T23:40:38.485Z,15.90
2019-03-23T23:43:08.002Z,16.77
2019-03-23T23:45:37.789Z,16.83
2019-03-23T23:48:07.591Z,15.70
2019-03-23T23:50:37.017Z,15.60
2019-03-23T23:53:06.514Z,15.73
2019-03-23T23:55:36.466Z,15.73
2019-03-23T23:58:05.918Z,16.07
